createdAt,value
2023-04-29T00:01:59.291Z,11.50
2023-04-29T00:05:31.167Z,11.10
2023-04-29T00:08:58.817Z,12.00
2023-04-29T00:12:25.841Z,12.30
2023-04-29T00:15:53.001Z,12.40
2023-04-29T00:19:21.760Z,11.10
2023-04-29T00:22:49.752Z,11.80
2023-04-29T00:26:17.743Z,11.60
2023-04-29T00:29:44.591Z,11.30
2023-04-29T00:33:11.312Z,11.80
2023-04-29T00:36:39.221Z,11.30
2023-04-29T00:40:06.985Z,11.50
2023-04-29T00:43:34.138Z,11.30
2023-04-29T00:47:00.947Z,10.70
2023-04-29T00:50:28.039Z,11.40
2023-04-29T00:53:56.317Z,11.70
2023-04-29T00:57:24.180Z,11.40
2023-04-29T01:00:51.627Z,11.10
2023-04-29T01:04:19.286Z,12.30
2023-04-29T01:07:58.696Z,11.70
2023-04-29T01:11:31.156Z,10.90
2023-04-29T01:15:11.586Z,12.60
2023-04-29T01:18:44.239Z,11.70
2023-04-29T01:22:12.880Z,11.90
2023-04-29T01:25:41.097Z,11.50
2023-04-29T01:29:36.970Z,11.60
2023-04-29T01:33:12.821Z,11.60
2023-04-29T01:36:54.655Z,11.60
2023-04-29T01:40:27.726Z,12.20
2023-04-29T01:44:05.560Z,11.40
2023-04-29T01:47:34.257Z,11.30
2023-04-29T01:51:01.657Z,12.20
2023-04-29T01:54:29.118Z,12.30
2023-04-29T01:57:57.347Z,12.60
2023-04-29T02:01:47.017Z,11.90
2023-04-29T02:05:13.895Z,11.90
2023-04-29T02:08:42.677Z,12.40
2023-04-29T02:12:09.972Z,12.50
2023-04-29T02:15:36.657Z,12.30
2023-04-29T02:19:04.000Z,12.60
2023-04-29T02:22:30.950Z,13.40
2023-04-29T02:25:57.945Z,15.40
2023-04-29T02:29:26.744Z,17.30
2023-04-29T02:32:54.925Z,14.70
2023-04-29T02:36:21.674Z,13.50
2023-04-29T02:39:53.083Z,13.20
2023-04-29T02:43:20.580Z,13.10
2023-04-29T02:46:47.656Z,14.40
2023-04-29T02:50:15.319Z,12.60
2023-04-29T02:53:42.086Z,13.60
2023-04-29T02:57:09.064Z,13.00
2023-04-29T03:00:35.991Z,13.80
2023-04-29T03:04:03.284Z,13.30
2023-04-29T03:07:30.873Z,13.30
2023-04-29T03:10:57.517Z,13.50
2023-04-29T03:14:24.575Z,13.50
2023-04-29T03:17:53.974Z,13.80
2023-04-29T03:21:20.727Z,14.20
2023-04-29T03:24:47.714Z,14.10
2023-04-29T03:28:15.250Z,14.10
2023-04-29T03:31:42.401Z,13.20
2023-04-29T03:35:14.132Z,13.80
2023-04-29T03:39:14.313Z,14.30
2023-04-29T03:42:42.733Z,13.40
2023-04-29T03:46:09.969Z,14.30
2023-04-29T03:49:38.215Z,14.40
2023-04-29T03:53:05.356Z,15.20
2023-04-29T03:56:32.231Z,14.60
2023-04-29T03:59:58.823Z,13.60
2023-04-29T04:03:26.224Z,14.30
2023-04-29T04:06:54.685Z,14.10
2023-04-29T04:10:26.282Z,13.20
2023-04-29T04:13:53.170Z,14.80
2023-04-29T04:17:19.991Z,14.80
2023-04-29T04:20:46.428Z,14.50
2023-04-29T04:24:13.789Z,14.20
2023-04-29T04:27:41.461Z,15.00
2023-04-29T04:31:14.947Z,13.10
2023-04-29T04:34:43.961Z,13.90
2023-04-29T04:38:12.727Z,14.20
2023-04-29T04:41:40.858Z,13.50
2023-04-29T04:45:09.899Z,14.30
2023-04-29T04:48:47.870Z,14.90
2023-04-29T04:52:16.959Z,14.10
2023-04-29T04:55:44.885Z,14.00
2023-04-29T04:59:12.043Z,14.90
2023-04-29T05:02:39.161Z,14.40
2023-04-29T05:06:06.925Z,14.20
2023-04-29T05:09:34.881Z,15.90
2023-04-29T05:13:04.526Z,15.40
2023-04-29T05:16:31.378Z,14.40
2023-04-29T05:19:59.083Z,14.60
2023-04-29T05:23:26.189Z,13.80
2023-04-29T05:26:54.416Z,14.00
2023-04-29T05:30:22.308Z,15.20
2023-04-29T05:33:49.345Z,14.00
2023-04-29T05:37:16.104Z,14.30
2023-04-29T05:41:01.200Z,14.30
2023-04-29T05:44:48.971Z,15.70
2023-04-29T05:48:15.960Z,14.20
2023-04-29T05:51:46.180Z,14.60
2023-04-29T05:55:13.531Z,15.10
2023-04-29T05:58:40.682Z,16.60
2023-04-29T06:02:07.658Z,15.60
2023-04-29T06:05:36.160Z,14.40
2023-04-29T06:09:33.939Z,13.90
2023-04-29T06:13:04.506Z,14.80
2023-04-29T06:16:31.512Z,15.00
2023-04-29T06:19:58.515Z,13.90
2023-04-29T06:23:25.364Z,14.00
2023-04-29T06:26:52.688Z,14.50
2023-04-29T06:30:20.261Z,14.30
2023-04-29T06:33:48.130Z,14.70
2023-04-29T06:37:15.788Z,14.00
2023-04-29T06:41:01.878Z,14.40
2023-04-29T06:44:48.371Z,14.00
2023-04-29T06:48:33.976Z,14.60
2023-04-29T06:52:04.408Z,13.70
2023-04-29T06:55:31.848Z,13.80
2023-04-29T06:58:59.369Z,13.30
2023-04-29T07:02:26.598Z,13.90
2023-04-29T07:05:53.718Z,13.40
2023-04-29T07:09:20.949Z,14.70
2023-04-29T07:12:48.205Z,13.70
2023-04-29T07:16:21.945Z,13.30
2023-04-29T07:19:48.936Z,13.50
2023-04-29T07:23:16.357Z,12.70
2023-04-29T07:26:44.430Z,13.50
2023-04-29T07:30:12.257Z,13.80
2023-04-29T07:33:40.120Z,13.40
2023-04-29T07:37:07.298Z,13.30
2023-04-29T07:40:33.944Z,13.20
2023-04-29T07:44:00.503Z,12.70
2023-04-29T07:47:27.671Z,13.20
2023-04-29T07:50:55.750Z,12.60
2023-04-29T07:54:23.937Z,13.20
2023-04-29T07:57:51.165Z,12.60
2023-04-29T08:01:17.939Z,12.90
2023-04-29T08:04:45.229Z,12.40
2023-04-29T08:08:13.548Z,12.60
2023-04-29T08:11:40.924Z,12.50
2023-04-29T08:15:09.974Z,12.30
2023-04-29T08:18:37.229Z,12.60
2023-04-29T08:22:04.630Z,12.90
2023-04-29T08:25:31.277Z,13.60
2023-04-29T08:28:58.803Z,13.10
2023-04-29T08:32:25.964Z,14.10
2023-04-29T08:35:59.006Z,12.90
2023-04-29T08:39:26.662Z,14.30
2023-04-29T08:42:54.965Z,13.20
2023-04-29T08:46:22.686Z,13.30
2023-04-29T08:49:49.224Z,13.70
2023-04-29T08:53:17.617Z,13.30
2023-04-29T08:56:48.650Z,14.50
2023-04-29T09:00:18.980Z,13.80
2023-04-29T09:03:53.096Z,13.60
2023-04-29T09:07:20.461Z,12.50
2023-04-29T09:10:47.870Z,13.30
2023-04-29T09:14:16.220Z,13.70
2023-04-29T09:17:48.276Z,12.50
2023-04-29T09:21:22.799Z,13.40
2023-04-29T09:24:50.097Z,14.00
2023-04-29T09:28:27.588Z,14.30
2023-04-29T09:31:59.120Z,14.70
2023-04-29T09:35:29.013Z,14.10
2023-04-29T09:38:58.866Z,14.60
2023-04-29T09:42:26.153Z,13.80
2023-04-29T09:45:53.227Z,14.00
2023-04-29T09:49:39.050Z,13.80
2023-04-29T09:53:06.785Z,14.40
2023-04-29T09:56:54.319Z,15.70
2023-04-29T10:00:21.404Z,12.40
2023-04-29T10:03:49.893Z,12.80
2023-04-29T10:07:20.034Z,12.70
2023-04-29T10:10:48.844Z,13.80
2023-04-29T10:14:19.392Z,12.90
2023-04-29T10:17:50.905Z,12.20
2023-04-29T10:21:19.988Z,12.70
2023-04-29T10:24:48.752Z,13.20
2023-04-29T10:28:18.052Z,13.60
2023-04-29T10:31:46.314Z,14.90
2023-04-29T10:35:15.107Z,14.30
2023-04-29T10:38:46.115Z,14.80
2023-04-29T10:42:22.757Z,13.70
2023-04-29T10:45:49.683Z,12.60
2023-04-29T10:49:16.556Z,14.50
2023-04-29T10:52:58.181Z,13.80
2023-04-29T10:56:37.133Z,13.90
2023-04-29T11:00:05.283Z,14.30
2023-04-29T11:03:49.773Z,13.20
2023-04-29T11:07:31.161Z,13.40
2023-04-29T11:11:04.279Z,12.10
2023-04-29T11:14:36.861Z,12.50
2023-04-29T11:18:05.408Z,12.70
2023-04-29T11:21:32.905Z,13.00
2023-04-29T11:25:01.825Z,13.40
2023-04-29T11:28:31.706Z,14.80
2023-04-29T11:32:03.060Z,13.00
2023-04-29T11:35:29.762Z,14.10
2023-04-29T11:38:56.945Z,13.00
2023-04-29T11:42:26.542Z,12.90
2023-04-29T11:45:54.498Z,13.10
2023-04-29T11:49:21.491Z,13.40
2023-04-29T11:52:50.314Z,12.80
2023-04-29T11:56:17.042Z,13.60
2023-04-29T11:59:45.579Z,13.20
2023-04-29T12:03:17.246Z,13.80
2023-04-29T12:06:45.813Z,13.80
2023-04-29T12:10:14.945Z,13.70
2023-04-29T12:13:43.075Z,13.50
2023-04-29T12:17:12.542Z,13.20
2023-04-29T12:20:40.524Z,13.30
2023-04-29T12:24:08.853Z,13.10
2023-04-29T12:27:41.875Z,13.70
2023-04-29T12:31:10.522Z,12.90
2023-04-29T12:34:38.195Z,13.50
2023-04-29T12:38:05.203Z,13.20
2023-04-29T12:41:42.555Z,13.20
2023-04-29T12:45:11.950Z,13.60
2023-04-29T12:48:44.027Z,13.40
2023-04-29T12:52:12.470Z,13.50
2023-04-29T12:55:40.451Z,13.50
2023-04-29T12:59:12.416Z,12.90
2023-04-29T13:02:38.892Z,13.50
2023-04-29T13:06:05.924Z,13.20
2023-04-29T13:09:32.650Z,13.30
2023-04-29T13:13:00.967Z,13.00
2023-04-29T13:16:28.338Z,12.80
2023-04-29T13:19:55.453Z,13.20
2023-04-29T13:23:22.986Z,16.00
2023-04-29T13:26:52.398Z,13.50
2023-04-29T13:30:19.859Z,11.60
2023-04-29T13:33:48.297Z,12.90
2023-04-29T13:37:15.290Z,10.60
2023-04-29T13:40:46.558Z,10.80
2023-04-29T13:48:03.118Z,10.90
2023-04-29T13:55:50.854Z,10.80
2023-04-29T13:59:37.194Z,13.50
2023-04-29T14:02:39.177Z,12.10
2023-04-29T14:06:08.993Z,12.90
2023-04-29T14:09:38.200Z,10.90
2023-04-29T14:13:05.386Z,11.00
2023-04-29T14:16:33.619Z,10.00
2023-04-29T14:20:00.810Z,10.00
2023-04-29T14:23:28.132Z,9.90
2023-04-29T14:26:55.998Z,9.90
2023-04-29T14:30:23.555Z,10.60
2023-04-29T14:33:51.546Z,10.60
2023-04-29T14:37:25.255Z,10.70
2023-04-29T14:40:59.267Z,9.90
2023-04-29T14:44:27.336Z,9.80
2023-04-29T14:47:53.960Z,9.40
2023-04-29T14:51:22.348Z,10.80
2023-04-29T14:54:48.974Z,10.70
2023-04-29T14:58:15.831Z,10.90
2023-04-29T15:01:42.844Z,11.90
2023-04-29T15:05:10.843Z,12.70
2023-04-29T15:08:38.567Z,11.80
2023-04-29T15:12:07.281Z,12.40
2023-04-29T15:15:36.387Z,10.90
2023-04-29T15:19:03.096Z,10.50
2023-04-29T15:22:30.007Z,9.40
2023-04-29T15:25:57.850Z,10.20
2023-04-29T15:29:26.381Z,10.00
2023-04-29T15:32:57.603Z,9.90
2023-04-29T15:36:31.441Z,10.50
2023-04-29T15:40:12.074Z,9.80
2023-04-29T15:43:40.472Z,9.80
2023-04-29T15:47:08.448Z,10.60
2023-04-29T15:50:35.363Z,10.90
2023-04-29T15:54:02.573Z,10.70
2023-04-29T15:57:34.982Z,11.10
2023-04-29T16:01:04.314Z,11.50
2023-04-29T16:04:33.580Z,11.70
2023-04-29T16:08:00.653Z,9.90
2023-04-29T16:11:27.313Z,9.60
2023-04-29T16:14:54.446Z,10.60
2023-04-29T16:18:21.236Z,10.70
2023-04-29T16:21:48.826Z,11.40
2023-04-29T16:25:16.060Z,10.30
2023-04-29T16:28:44.490Z,11.50
2023-04-29T16:32:11.540Z,10.70
2023-04-29T16:35:52.493Z,10.20
2023-04-29T16:39:40.468Z,16.40
2023-04-29T16:43:16.631Z,17.50
2023-04-29T16:46:46.135Z,17.60
2023-04-29T16:50:13.711Z,18.10
2023-04-29T16:53:40.072Z,19.50
2023-04-29T16:57:07.070Z,19.70
2023-04-29T17:00:34.906Z,17.50
2023-04-29T17:04:02.202Z,17.30
2023-04-29T17:07:28.927Z,18.30
2023-04-29T17:11:11.562Z,20.00
2023-04-29T17:14:54.811Z,19.20
2023-04-29T17:18:45.450Z,22.60
2023-04-29T17:22:18.401Z,16.80
2023-04-29T17:25:45.356Z,16.70
2023-04-29T17:29:13.226Z,17.10
2023-04-29T17:32:40.141Z,16.40
2023-04-29T17:36:09.734Z,17.00
2023-04-29T17:39:42.757Z,18.70
2023-04-29T17:43:09.736Z,20.20
2023-04-29T17:46:37.725Z,21.50
2023-04-29T17:50:05.335Z,23.60
2023-04-29T17:53:35.080Z,24.40
2023-04-29T17:57:03.589Z,22.70
2023-04-29T18:00:30.242Z,21.30
2023-04-29T18:03:56.927Z,20.70
2023-04-29T18:07:23.498Z,21.30
2023-04-29T18:10:50.635Z,19.30
2023-04-29T18:14:18.304Z,19.30
2023-04-29T18:17:46.467Z,20.50
2023-04-29T18:21:13.319Z,17.80
2023-04-29T18:24:40.654Z,19.10
2023-04-29T18:28:23.979Z,20.00
2023-04-29T18:31:54.972Z,20.20
2023-04-29T18:35:21.819Z,21.90
2023-04-29T18:38:48.838Z,21.90
2023-04-29T18:42:15.590Z,20.70
2023-04-29T18:45:42.550Z,23.00
2023-04-29T18:49:12.016Z,22.60
2023-04-29T18:52:39.759Z,22.40
2023-04-29T18:56:07.695Z,21.80
2023-04-29T18:59:38.097Z,20.80
2023-04-29T19:03:04.981Z,18.40
2023-04-29T19:06:32.656Z,19.10
2023-04-29T19:09:59.230Z,18.30
2023-04-29T19:13:27.098Z,18.30
2023-04-29T19:16:55.193Z,15.80
2023-04-29T19:20:22.234Z,17.60
2023-04-29T19:23:49.519Z,18.20
2023-04-29T19:27:17.484Z,19.70
2023-04-29T19:30:47.060Z,20.20
2023-04-29T19:34:14.037Z,20.50
2023-04-29T19:37:41.415Z,22.10
2023-04-29T19:41:08.208Z,21.90
2023-04-29T19:44:34.797Z,22.40
2023-04-29T19:48:02.721Z,20.00
2023-04-29T19:51:29.624Z,20.50
2023-04-29T19:54:57.570Z,20.80
2023-04-29T19:58:24.861Z,21.00
2023-04-29T20:01:52.315Z,21.70
2023-04-29T20:05:19.955Z,19.90
2023-04-29T20:08:46.890Z,20.20
2023-04-29T20:12:13.835Z,19.90
2023-04-29T20:15:41.125Z,19.30
2023-04-29T20:19:09.142Z,18.90
2023-04-29T20:22:35.775Z,18.20
2023-04-29T20:26:04.279Z,18.00
2023-04-29T20:29:31.047Z,20.00
2023-04-29T20:32:57.841Z,19.30
2023-04-29T20:36:28.914Z,16.60
2023-04-29T20:39:55.769Z,17.10
2023-04-29T20:43:23.316Z,17.10
2023-04-29T20:46:50.688Z,15.30
2023-04-29T20:50:17.329Z,14.20
2023-04-29T20:53:45.088Z,13.90
2023-04-29T20:57:12.456Z,13.40
2023-04-29T21:00:39.142Z,13.40
2023-04-29T21:04:06.141Z,12.60
2023-04-29T21:07:33.153Z,12.80
2023-04-29T21:11:01.770Z,12.40
2023-04-29T21:14:28.554Z,12.80
2023-04-29T21:17:55.616Z,12.10
2023-04-29T21:21:23.688Z,12.80
2023-04-29T21:24:50.234Z,11.70
2023-04-29T21:28:17.118Z,12.10
2023-04-29T21:31:43.782Z,12.70
2023-04-29T21:35:12.724Z,13.60
2023-04-29T21:38:40.090Z,13.50
2023-04-29T21:42:07.552Z,13.50
2023-04-29T21:45:35.649Z,12.30
2023-04-29T21:49:04.015Z,11.00
2023-04-29T21:52:35.351Z,11.30
2023-04-29T21:56:02.055Z,10.80
2023-04-29T21:59:34.601Z,10.30
2023-04-29T22:03:02.897Z,10.50
2023-04-29T22:06:29.973Z,9.80
2023-04-29T22:09:57.795Z,10.20
2023-04-29T22:13:24.867Z,11.30
2023-04-29T22:16:52.359Z,10.70
2023-04-29T22:20:19.491Z,11.20
2023-04-29T22:23:47.112Z,11.80
2023-04-29T22:27:14.502Z,12.10
2023-04-29T22:30:43.463Z,11.60
2023-04-29T22:34:10.508Z,12.70
2023-04-29T22:37:41.868Z,12.20
2023-04-29T22:41:12.303Z,12.10
2023-04-29T22:44:39.290Z,12.50
2023-04-29T22:48:08.275Z,11.30
2023-04-29T22:51:35.963Z,11.00
2023-04-29T22:55:02.942Z,10.10
2023-04-29T22:58:29.870Z,10.40
2023-04-29T23:01:57.471Z,10.10
2023-04-29T23:05:24.878Z,10.10
2023-04-29T23:08:51.741Z,10.10
2023-04-29T23:12:18.558Z,9.60
2023-04-29T23:15:45.836Z,10.40
2023-04-29T23:19:13.093Z,9.80
2023-04-29T23:22:39.835Z,10.20
2023-04-29T23:26:06.985Z,10.20
2023-04-29T23:29:36.627Z,10.60
2023-04-29T23:33:03.376Z,10.80
2023-04-29T23:36:30.238Z,10.20
2023-04-29T23:39:58.464Z,10.40
2023-04-29T23:43:25.581Z,10.80
2023-04-29T23:46:51.824Z,10.80
2023-04-29T23:50:18.930Z,11.10
2023-04-29T23:53:45.215Z,11.90
2023-04-29T23:57:12.329Z,11.00
